This is the latest recevied weather packets stored in our database for station/object PA1CG-7. If no packets are shown the sender has not sent any weather packets the latest 1 day(s).
| Time | Temp. | Humidity | Pressure | Rain* | Wind** | Luminosity | Snow |
|---|---|---|---|---|---|---|---|
| 1777996335 | 14.44° C | 67% | 1010.3 hPa | 0 mm | 4.92 m/s, 293° | - | - |
| 1777995735 | 14.44° C | 67% | 1010.2 hPa | 0 mm | 4.02 m/s, 315° | - | - |
| 1777995135 | 15° C | 66% | 1010.2 hPa | 0 mm | 4.02 m/s, 315° | - | - |
| 1777994535 | 15° C | 66% | 1010.4 hPa | 0 mm | 4.02 m/s, 315° | - | - |
| 1777993935 | 15° C | 64% | 1010.4 hPa | 0 mm | 4.92 m/s, 315° | - | - |
| 1777993335 | 15° C | 65% | 1010.3 hPa | 0 mm | 2.68 m/s, 293° | - | - |
| 1777992738 | 15° C | 65% | 1010.3 hPa | 0 mm | 4.02 m/s, 315° | - | - |
| 1777992137 | 15.56° C | 64% | 1010.4 hPa | 0 mm | 4.47 m/s, 315° | - | - |
| 1777991537 | 15.56° C | 64% | 1010.5 hPa | 0 mm | 4.92 m/s, 315° | - | - |
| 1777990937 | 15.56° C | 65% | 1010.4 hPa | 0 mm | 2.68 m/s, 315° | - | - |
| 1777990337 | 16.11° C | 64% | 1010.5 hPa | 0 mm | 3.58 m/s, 315° | - | - |
| 1777989735 | 16.11° C | 64% | 1010.5 hPa | 0 mm | 3.58 m/s, 315° | - | - |
| 1777989137 | 16.11° C | 64% | 1010.5 hPa | 0 mm | 3.13 m/s, 293° | - | - |
| 1777988537 | 15.56° C | 64% | 1010.7 hPa | 0 mm | 3.58 m/s, 315° | - | - |
| 1777987937 | 15.56° C | 64% | 1010.7 hPa | 0 mm | 5.81 m/s, 315° | - | - |
| 1777987337 | 16.11° C | 63% | 1010.8 hPa | 0 mm | 3.58 m/s, 315° | - | - |
| 1777986737 | 16.11° C | 63% | 1010.9 hPa | 0 mm | 4.92 m/s, 293° | - | - |
| 1777986137 | 16.11° C | 63% | 1010.7 hPa | 0 mm | 3.13 m/s, 315° | - | - |
| 1777985537 | 16.67° C | 62% | 1010.8 hPa | 0 mm | 4.47 m/s, 315° | - | - |
| 1777984937 | 16.67° C | 62% | 1010.8 hPa | 0 mm | 5.36 m/s, 315° | - | - |
| 1777984337 | 16.67° C | 63% | 1010.8 hPa | 0 mm | 2.24 m/s, 338° | - | - |
| 1777983737 | 16.67° C | 62% | 1010.9 hPa | 0 mm | 4.47 m/s, 293° | - | - |
| 1777983137 | 16.67° C | 62% | 1010.7 hPa | 0 mm | 3.13 m/s, 315° | - | - |
| 1777982537 | 16.67° C | 62% | 1010.8 hPa | 0 mm | 4.47 m/s, 315° | - | - |
| 1777981937 | 16.67° C | 63% | 1010.7 hPa | 0 mm | 2.68 m/s, 315° | - | - |
* Rain latest hour (hover to see other rain measurements)
** Current wind speed in m/s (hover to see current wind gust speed)